ADDS METAR Data INFO
IDs: Format: Raw Decoded Include TAF

Data at: 0335 UTC 19 Feb 2018

KCRQ 190253Z AUTO 20005KT 10SM BKN022 14/10 A2991 RMK AO2 SLP126 T01440100 58001
KCRQ 190237Z AUTO 20005KT 10SM BKN020 14/10 A2991 RMK AO2 T01440100
KCRQ 190224Z AUTO 21005KT 10SM SCT020 14/11 A2990 RMK AO2 T01440106
KCRQ 190153Z AUTO 21006KT 10SM BKN019 14/11 A2991 RMK AO2 SLP127 T01440106
KCRQ 190127Z AUTO 23006KT 10SM BKN018 14/11 A2991 RMK AO2 T01440106
KCRQ 190053Z AUTO 21007KT 10SM SCT015 15/11 A2991 RMK AO2 SLP127 T01500111
KCRQ 182353Z AUTO 23011KT 10SM CLR 17/10 A2991 RMK AO2 SLP126 T01670100 10183 20167 56015
KCRQ 182253Z AUTO 24010KT 10SM CLR 17/09 A2992 RMK AO2 SLP128 T01720089
KCRQ 182153Z AUTO 24006KT 10SM CLR 18/06 A2993 RMK AO2 SLP133 T01780056
KCRQ 182053Z AUTO 28007KT 10SM FEW055 17/11 A2995 RMK AO2 SLP140 T01670106 58015
KCRQ 181953Z AUTO 26008KT 10SM OVC055 17/10 A2998 RMK AO2 SLP150 T01720100
KCRQ 181853Z AUTO 25014G20KT 10SM BKN055 18/08 A2999 RMK AO2 SLP155 T01780083
KCRQ 181753Z AUTO 00000KT 10SM CLR 17/07 A3000 RMK AO2 SLP155 T01670072 10172 20089 50004
KCRQ 181653Z AUTO 18003KT 10SM CLR 15/07 A3000 RMK AO2 SLP158 T01500067
KCRQ 181553Z AUTO 00000KT 10SM CLR 13/04 A3000 RMK AO2 SLP155 T01280039
KCRQ 181453Z AUTO 14003KT 10SM CLR 10/02 A2998 RMK AO2 SLP152 T01000022 55000
KCRQ 181353Z AUTO 11005KT 10SM CLR 10/02 A2998 RMK AO2 SLP150 T01000017
KCRQ 181253Z AUTO 00000KT 10SM CLR 11/01 A2998 RMK AO2 SLP149 T01110006
KCRQ 181153Z AUTO 00000KT 10SM CLR 10/02 A2998 RMK AO2 SLP151 T01000017 10133 20100 56013
KCRQ 181053Z AUTO 05003KT 10SM CLR 11/03 A3000 RMK AO2 SLP155 T01110028
KCRQ 180953Z AUTO 00000KT 10SM CLR 11/02 A3001 RMK AO2 SLP160 T01060017
KCRQ 180853Z AUTO 00000KT 10SM CLR 11/02 A3002 RMK AO2 SLP165 T01110017 58005
KCRQ 180753Z AUTO 08004KT 10SM CLR 12/02 A3003 RMK AO2 SLP167 T01220017 402060100
KCRQ 180653Z AUTO 00000KT 10SM CLR 12/04 A3004 RMK AO2 SLP169 T01170039
KCRQ 180553Z AUTO 00000KT 10SM CLR 13/07 A3004 RMK AO2 SLP170 T01280067 10200 20128 58001
KCRQ 180453Z AUTO 00000KT 10SM CLR 13/08 A3004 RMK AO2 SLP171 T01330078
KCRQ 180353Z AUTO 18003KT 10SM CLR 15/10 A3004 RMK AO2 SLP172 T01500100
KCRQ 180253Z AUTO 00000KT 10SM CLR 16/11 A3004 RMK AO2 SLP172 T01560106 53003
KCRQ 180153Z AUTO 00000KT 10SM CLR 16/12 A3003 RMK AO2 SLP169 T01560117
KCRQ 180053Z AUTO 27004KT 10SM CLR 17/10 A3003 RMK AO2 SLP168 T01720100
KCRQ 172353Z AUTO 27005KT 10SM CLR 20/M01 A3003 RMK AO2 SLP168 T02001006 10206 20183 56017
KCRQ 172253Z AUTO VRB04KT 10SM CLR 19/M02 A3004 RMK AO2 SLP169 T01941022
KCRQ 172153Z AUTO VRB04KT 10SM CLR 20/02 A3006 RMK AO2 SLP176 T02000022
KCRQ 172053Z AUTO 25006KT 10SM CLR 20/M02 A3008 RMK AO2 SLP185 T02001022 58018
KCRQ 171953Z AUTO 24005KT 10SM CLR 20/M04 A3011 RMK AO2 SLP196 T02001039
KCRQ 171853Z AUTO 26005KT 10SM CLR 19/M04 A3014 RMK AO2 SLP204 T01941039
KCRQ 171753Z AUTO 25004KT 10SM CLR 18/M03 A3014 RMK AO2 SLP204 T01831033 10183 20100 52016
KCRQ 171653Z AUTO 00000KT 10SM CLR 18/M06 A3012 RMK AO2 SLP198 T01781061
KCRQ 171553Z AUTO 08003KT 10SM CLR 14/M06 A3011 RMK AO2 SLP193 T01441056